createdAt,value
2022-07-31T00:00:07.371Z,96595.88
2022-07-31T00:01:09.203Z,96600.88
2022-07-31T00:02:10.774Z,96605.91
2022-07-31T00:03:12.800Z,96594.56
2022-07-31T00:04:14.811Z,96599.94
2022-07-31T00:05:17.020Z,96594.09
2022-07-31T00:06:19.372Z,96593.63
2022-07-31T00:07:20.970Z,96594.09
2022-07-31T00:08:22.531Z,96603.00
2022-07-31T00:09:53.227Z,96603.34
2022-07-31T00:10:45.761Z,96598.97
2022-07-31T00:11:47.542Z,96606.06
2022-07-31T00:12:49.343Z,96595.06
2022-07-31T00:13:57.821Z,96597.34
2022-07-31T00:15:00.748Z,96601.16
2022-07-31T00:16:02.305Z,96598.00
2022-07-31T00:17:04.210Z,96599.50
2022-07-31T00:18:06.110Z,96596.34
2022-07-31T00:19:07.766Z,96591.28
2022-07-31T00:20:13.426Z,96592.53
2022-07-31T00:21:15.142Z,96593.38
2022-07-31T00:22:16.821Z,96601.44
2022-07-31T00:23:18.934Z,96605.03
2022-07-31T00:24:20.723Z,96603.28
2022-07-31T00:25:22.311Z,96602.44
2022-07-31T00:26:24.023Z,96600.09
2022-07-31T00:27:25.669Z,96603.09
2022-07-31T00:28:27.369Z,96607.28
2022-07-31T00:29:28.998Z,96595.91
2022-07-31T00:30:30.649Z,96603.00
2022-07-31T00:31:32.364Z,96601.53
2022-07-31T00:32:36.249Z,96605.63
2022-07-31T00:33:37.856Z,96599.97
2022-07-31T00:34:39.464Z,96598.06
2022-07-31T00:35:41.091Z,96600.78
2022-07-31T00:36:42.768Z,96608.97
2022-07-31T00:37:44.751Z,96599.75
2022-07-31T00:38:46.400Z,96596.44
2022-07-31T00:39:48.041Z,96600.41
2022-07-31T00:40:50.637Z,96600.13
2022-07-31T00:41:52.362Z,96595.50
2022-07-31T00:42:53.934Z,96587.00
2022-07-31T00:43:55.481Z,96586.31
2022-07-31T00:44:57.035Z,96591.59
2022-07-31T00:46:00.906Z,96587.41
2022-07-31T00:47:02.906Z,96595.22
2022-07-31T00:48:06.325Z,96594.91
2022-07-31T00:49:12.320Z,96599.97
2022-07-31T00:50:14.005Z,96597.69
2022-07-31T00:51:15.587Z,96595.75
2022-07-31T00:52:17.162Z,96598.47
2022-07-31T00:53:18.748Z,96598.06
2022-07-31T00:54:22.638Z,96603.56
2022-07-31T00:55:25.656Z,96594.69
2022-07-31T00:56:27.401Z,96585.81
2022-07-31T00:57:29.055Z,96593.63
2022-07-31T00:58:30.636Z,96595.94
2022-07-31T00:59:32.758Z,96590.13
2022-07-31T01:00:34.385Z,96601.78
2022-07-31T01:01:35.981Z,96607.63
2022-07-31T01:02:38.480Z,96601.78
2022-07-31T01:03:48.723Z,96601.00
2022-07-31T01:04:50.594Z,96604.84
2022-07-31T01:05:52.146Z,96593.19
2022-07-31T01:06:54.710Z,96589.28
2022-07-31T01:07:56.291Z,96593.56
2022-07-31T01:08:57.872Z,96591.59
2022-07-31T01:10:01.030Z,96589.28
2022-07-31T01:11:11.144Z,96595.88
2022-07-31T01:12:22.624Z,96592.75
2022-07-31T01:13:35.629Z,96596.97
2022-07-31T01:14:41.969Z,96595.34
2022-07-31T01:15:45.184Z,96596.91
2022-07-31T01:16:50.043Z,96594.94
2022-07-31T01:17:53.151Z,96594.94
2022-07-31T01:18:57.548Z,96596.88
2022-07-31T01:19:59.829Z,96593.72
2022-07-31T01:21:06.335Z,96593.69
2022-07-31T01:22:35.362Z,96595.28
2022-07-31T01:24:05.139Z,96592.91
2022-07-31T01:25:30.650Z,96597.53
2022-07-31T01:26:56.704Z,96603.72
2022-07-31T01:28:19.077Z,96595.91
2022-07-31T01:29:36.837Z,96581.84
2022-07-31T01:31:10.720Z,96586.84
2022-07-31T01:32:28.271Z,96580.31
2022-07-31T01:33:34.540Z,96582.72
2022-07-31T01:34:52.383Z,96580.91
2022-07-31T01:36:06.432Z,96582.06
2022-07-31T01:37:13.674Z,96586.69
2022-07-31T01:38:20.911Z,96580.50
2022-07-31T01:39:23.366Z,96588.25
2022-07-31T01:40:35.588Z,96588.25
2022-07-31T01:41:43.219Z,96585.50
2022-07-31T01:42:55.282Z,96588.94
2022-07-31T01:43:58.903Z,96585.09
2022-07-31T01:45:03.097Z,96587.75
2022-07-31T01:46:05.948Z,96582.28
2022-07-31T01:47:09.156Z,96581.06
2022-07-31T01:48:14.339Z,96579.41
2022-07-31T01:49:19.157Z,96582.44
2022-07-31T01:50:42.370Z,96581.56
2022-07-31T01:51:45.665Z,96581.84
2022-07-31T01:52:49.969Z,96586.06
2022-07-31T01:53:53.552Z,96593.03
2022-07-31T01:54:57.155Z,96581.25
2022-07-31T01:56:03.528Z,96584.34
2022-07-31T01:57:07.400Z,96584.72
2022-07-31T01:58:10.113Z,96590.53
2022-07-31T01:59:20.573Z,96591.34
2022-07-31T02:00:33.437Z,96587.47
2022-07-31T02:01:39.743Z,96587.53
2022-07-31T02:02:43.816Z,96586.94
2022-07-31T02:03:46.807Z,96586.69
2022-07-31T02:04:55.365Z,96589.44
2022-07-31T02:05:58.049Z,96593.28
2022-07-31T02:07:02.547Z,96588.66
2022-07-31T02:08:06.518Z,96585.19
2022-07-31T02:09:08.272Z,96594.94
2022-07-31T02:10:12.850Z,96585.63
2022-07-31T02:11:19.857Z,96590.31
2022-07-31T02:12:33.792Z,96595.75
2022-07-31T02:13:37.519Z,96596.00
2022-07-31T02:14:41.943Z,96604.09
2022-07-31T02:15:44.633Z,96600.13
2022-07-31T02:16:47.545Z,96606.28
2022-07-31T02:17:50.618Z,96607.09
2022-07-31T02:18:54.014Z,96606.75
2022-07-31T02:20:00.248Z,96606.41
2022-07-31T02:21:02.392Z,96593.56
2022-07-31T02:22:05.186Z,96600.63
2022-07-31T02:23:07.913Z,96599.44
2022-07-31T02:24:09.831Z,96593.97
2022-07-31T02:25:11.717Z,96600.34
2022-07-31T02:26:16.260Z,96592.59
2022-07-31T02:27:57.094Z,96596.91
2022-07-31T02:28:43.780Z,96597.31
2022-07-31T02:29:46.643Z,96592.66
2022-07-31T02:30:49.764Z,96595.06
2022-07-31T02:32:03.118Z,96593.50
2022-07-31T02:33:09.114Z,96591.94
2022-07-31T02:34:14.146Z,96589.63
2022-07-31T02:35:17.432Z,96588.88
2022-07-31T02:36:22.268Z,96590.13
2022-07-31T02:37:25.551Z,96592.84
2022-07-31T02:38:28.401Z,96599.81
2022-07-31T02:39:32.676Z,96593.50
2022-07-31T02:40:35.506Z,96595.78
2022-07-31T02:41:37.448Z,96604.34
2022-07-31T02:42:40.802Z,96603.53
2022-07-31T02:43:44.373Z,96598.81
2022-07-31T02:44:46.811Z,96605.03
2022-07-31T02:45:48.838Z,96604.66
2022-07-31T02:46:51.328Z,96609.66
2022-07-31T02:47:54.376Z,96609.63
2022-07-31T02:48:57.301Z,96615.06
2022-07-31T02:49:59.366Z,96606.50
2022-07-31T02:51:01.281Z,96609.59
2022-07-31T02:52:05.447Z,96615.38
2022-07-31T02:53:07.752Z,96625.09
2022-07-31T02:54:09.459Z,96611.47
2022-07-31T02:55:11.388Z,96623.44
2022-07-31T02:56:16.136Z,96617.22
2022-07-31T02:57:17.790Z,96622.63
2022-07-31T02:58:19.986Z,96619.50
2022-07-31T02:59:24.640Z,96624.13
2022-07-31T03:00:29.261Z,96623.34
2022-07-31T03:01:35.196Z,96621.78
2022-07-31T03:02:37.923Z,96621.94
2022-07-31T03:03:40.288Z,96622.84
2022-07-31T03:04:42.148Z,96615.94
2022-07-31T03:05:43.803Z,96615.53
2022-07-31T03:06:45.415Z,96615.91
2022-07-31T03:07:47.373Z,96617.44
2022-07-31T03:08:49.306Z,96625.19
2022-07-31T03:09:50.899Z,96622.72
2022-07-31T03:10:52.522Z,96626.53
2022-07-31T03:11:54.125Z,96628.03
2022-07-31T03:12:56.920Z,96624.47
2022-07-31T03:14:01.202Z,96624.81
2022-07-31T03:15:03.966Z,96626.28
2022-07-31T03:16:09.011Z,96625.06
2022-07-31T03:17:11.537Z,96622.28
2022-07-31T03:18:17.208Z,96628.47
2022-07-31T03:19:22.952Z,96628.06
2022-07-31T03:20:25.350Z,96624.16
2022-07-31T03:21:27.788Z,96627.69
2022-07-31T03:22:29.395Z,96629.25
2022-07-31T03:23:36.445Z,96633.13
2022-07-31T03:24:38.263Z,96630.75
2022-07-31T03:25:41.431Z,96635.44
2022-07-31T03:26:43.058Z,96629.25
2022-07-31T03:27:44.857Z,96629.63
2022-07-31T03:29:00.207Z,96643.16
2022-07-31T03:30:02.105Z,96644.69
2022-07-31T03:31:03.899Z,96643.09
2022-07-31T03:32:06.582Z,96642.25
2022-07-31T03:33:08.511Z,96641.84
2022-07-31T03:34:11.990Z,96644.53
2022-07-31T03:35:13.571Z,96640.63
2022-07-31T03:36:15.299Z,96642.97
2022-07-31T03:37:16.867Z,96637.91
2022-07-31T03:38:32.897Z,96639.88
2022-07-31T03:39:40.623Z,96638.38
2022-07-31T03:40:42.264Z,96641.47
2022-07-31T03:41:44.907Z,96650.03
2022-07-31T03:42:48.928Z,96655.50
2022-07-31T03:43:50.952Z,96647.78
2022-07-31T03:44:53.886Z,96645.50
2022-07-31T03:45:58.474Z,96644.81
2022-07-31T03:47:00.756Z,96642.53
2022-07-31T03:48:02.674Z,96640.97
2022-07-31T03:49:05.259Z,96644.44
2022-07-31T03:50:08.674Z,96642.09
2022-07-31T03:51:10.397Z,96644.38
2022-07-31T03:52:12.927Z,96648.59
2022-07-31T03:53:14.925Z,96647.00
2022-07-31T03:54:16.787Z,96646.19
2022-07-31T03:55:18.753Z,96650.44
2022-07-31T03:56:21.414Z,96655.91
2022-07-31T03:57:27.093Z,96645.44
2022-07-31T03:58:31.261Z,96654.84
2022-07-31T03:59:40.712Z,96654.84
2022-07-31T04:00:50.544Z,96653.34
2022-07-31T04:01:56.924Z,96653.00
2022-07-31T04:03:13.559Z,96663.97
2022-07-31T04:04:17.867Z,96652.72
2022-07-31T04:05:19.949Z,96648.84
2022-07-31T04:06:21.692Z,96657.41
2022-07-31T04:07:24.148Z,96650.41
2022-07-31T04:08:25.729Z,96652.34
2022-07-31T04:09:27.422Z,96648.09
2022-07-31T04:10:29.105Z,96651.19
2022-07-31T04:11:30.713Z,96642.72
2022-07-31T04:12:32.437Z,96642.97
2022-07-31T04:13:35.854Z,96641.63
2022-07-31T04:14:37.480Z,96637.50
2022-07-31T04:15:39.032Z,96645.41
2022-07-31T04:16:40.595Z,96649.88
2022-07-31T04:17:42.175Z,96641.78
2022-07-31T04:18:43.769Z,96635.97
2022-07-31T04:19:52.401Z,96643.75
2022-07-31T04:20:53.999Z,96641.38
2022-07-31T04:21:55.601Z,96644.88
2022-07-31T04:22:57.180Z,96647.59
2022-07-31T04:24:00.141Z,96643.66
2022-07-31T04:25:01.939Z,96649.13
2022-07-31T04:26:03.542Z,96648.38
2022-07-31T04:27:09.373Z,96654.63
2022-07-31T04:28:13.972Z,96648.41
2022-07-31T04:29:15.560Z,96651.50
2022-07-31T04:30:17.242Z,96651.47
2022-07-31T04:31:18.870Z,96651.47
2022-07-31T04:32:20.436Z,96649.16
2022-07-31T04:33:22.073Z,96650.72
2022-07-31T04:34:23.747Z,96643.72
2022-07-31T04:35:25.334Z,96647.63
2022-07-31T04:36:29.611Z,96648.38
2022-07-31T04:37:35.114Z,96646.78
2022-07-31T04:38:36.690Z,96651.44
2022-07-31T04:39:38.534Z,96649.88
2022-07-31T04:40:40.123Z,96649.50
2022-07-31T04:41:41.768Z,96652.22
2022-07-31T04:42:43.367Z,96642.88
2022-07-31T04:43:45.079Z,96647.47
2022-07-31T04:44:46.778Z,96645.06
2022-07-31T04:45:48.371Z,96649.31
2022-07-31T04:46:50.141Z,96649.66
2022-07-31T04:47:51.775Z,96654.34
2022-07-31T04:48:53.585Z,96651.97
2022-07-31T04:49:55.208Z,96646.50
2022-07-31T04:50:57.576Z,96654.22
2022-07-31T04:52:00.050Z,96651.84
2022-07-31T04:53:01.825Z,96652.56
2022-07-31T04:54:03.431Z,96649.41
2022-07-31T04:55:05.383Z,96649.38
2022-07-31T04:56:25.766Z,96643.16
2022-07-31T04:57:27.333Z,96648.34
2022-07-31T04:58:28.959Z,96647.19
2022-07-31T04:59:59.686Z,96651.06
2022-07-31T05:00:52.308Z,96654.03
2022-07-31T05:01:54.255Z,96646.13
2022-07-31T05:02:55.888Z,96651.53
2022-07-31T05:03:58.952Z,96655.81
2022-07-31T05:05:00.575Z,96650.69
2022-07-31T05:06:12.557Z,96659.13
2022-07-31T05:07:14.148Z,96657.47
2022-07-31T05:08:15.722Z,96660.94
2022-07-31T05:09:26.032Z,96656.97
2022-07-31T05:10:47.887Z,96661.19
2022-07-31T05:11:50.231Z,96661.47
2022-07-31T05:12:51.793Z,96661.78
2022-07-31T05:13:56.322Z,96660.16
2022-07-31T05:14:58.234Z,96664.03
2022-07-31T05:15:59.924Z,96660.69
2022-07-31T05:17:01.717Z,96660.50
2022-07-31T05:18:03.381Z,96665.38
2022-07-31T05:19:06.140Z,96658.34
2022-07-31T05:20:16.434Z,96671.44
2022-07-31T05:21:19.132Z,96669.81
2022-07-31T05:22:20.800Z,96668.13
2022-07-31T05:23:22.438Z,96664.19
2022-07-31T05:24:33.583Z,96666.53
2022-07-31T05:25:35.698Z,96662.63
2022-07-31T05:26:38.711Z,96663.91
2022-07-31T05:27:41.351Z,96660.34
2022-07-31T05:28:43.979Z,96658.72
2022-07-31T05:29:48.411Z,96656.41
2022-07-31T05:30:50.026Z,96662.63
2022-07-31T05:32:00.601Z,96666.47
2022-07-31T05:33:02.673Z,96662.56
2022-07-31T05:34:04.376Z,96663.47
2022-07-31T05:35:06.475Z,96659.63
2022-07-31T05:36:09.289Z,96668.31
2022-07-31T05:37:10.875Z,96670.66
2022-07-31T05:38:12.492Z,96661.72
2022-07-31T05:39:14.208Z,96663.72
2022-07-31T05:40:15.816Z,96661.72
2022-07-31T05:41:17.611Z,96662.06
2022-07-31T05:42:19.193Z,96663.91
2022-07-31T05:43:20.815Z,96666.09
2022-07-31T05:44:22.417Z,96664.84
2022-07-31T05:45:24.073Z,96667.81
2022-07-31T05:46:25.716Z,96662.31
2022-07-31T05:47:40.034Z,96673.91
2022-07-31T05:48:43.089Z,96662.94
2022-07-31T05:49:44.644Z,96675.34
2022-07-31T05:50:48.073Z,96671.44
2022-07-31T05:51:54.512Z,96672.22
2022-07-31T05:52:56.499Z,96666.03
2022-07-31T05:53:58.152Z,96673.84
2022-07-31T05:54:59.720Z,96665.97
2022-07-31T05:56:01.294Z,96669.81
2022-07-31T05:57:02.890Z,96674.03
2022-07-31T05:58:04.541Z,96665.09
2022-07-31T05:59:06.143Z,96670.44
2022-07-31T06:00:08.920Z,96670.34
2022-07-31T06:01:11.237Z,96663.25
2022-07-31T06:02:12.914Z,96664.34
2022-07-31T06:03:15.471Z,96670.84
2022-07-31T06:04:17.068Z,96663.03
2022-07-31T06:05:18.669Z,96669.13
2022-07-31T06:06:20.257Z,96667.50
2022-07-31T06:07:21.920Z,96665.91
2022-07-31T06:08:23.642Z,96670.53
2022-07-31T06:09:25.259Z,96663.41
2022-07-31T06:10:28.301Z,96664.91
2022-07-31T06:11:29.898Z,96668.00
2022-07-31T06:12:31.516Z,96657.41
2022-07-31T06:13:33.343Z,96668.03
2022-07-31T06:14:34.897Z,96668.88
2022-07-31T06:15:37.004Z,96666.16
2022-07-31T06:16:41.533Z,96668.94
2022-07-31T06:17:44.927Z,96665.44
2022-07-31T06:18:46.741Z,96668.03
2022-07-31T06:19:48.347Z,96676.53
2022-07-31T06:20:50.017Z,96671.06
2022-07-31T06:21:51.638Z,96674.13
2022-07-31T06:22:56.060Z,96670.22
2022-07-31T06:23:57.712Z,96669.84
2022-07-31T06:24:59.648Z,96671.88
2022-07-31T06:26:01.241Z,96671.09
2022-07-31T06:27:03.425Z,96676.84
2022-07-31T06:28:10.260Z,96669.81
2022-07-31T06:29:12.310Z,96668.16
2022-07-31T06:30:14.531Z,96667.03
2022-07-31T06:31:22.609Z,96667.88
2022-07-31T06:32:24.360Z,96671.31
2022-07-31T06:33:36.701Z,96670.47
2022-07-31T06:34:39.866Z,96665.00
2022-07-31T06:35:41.516Z,96675.13
2022-07-31T06:36:43.170Z,96665.38
2022-07-31T06:37:44.880Z,96659.06
2022-07-31T06:38:46.770Z,96650.56
2022-07-31T06:39:55.368Z,96658.81
2022-07-31T06:40:58.021Z,96659.19
2022-07-31T06:41:59.742Z,96653.00
2022-07-31T06:43:05.064Z,96653.03
2022-07-31T06:44:08.670Z,96653.56
2022-07-31T06:45:10.805Z,96657.84
2022-07-31T06:46:13.885Z,96654.56
2022-07-31T06:47:16.443Z,96654.44
2022-07-31T06:48:18.144Z,96663.72
2022-07-31T06:49:19.894Z,96659.28
2022-07-31T06:50:21.593Z,96649.41
2022-07-31T06:51:31.933Z,96649.56
2022-07-31T06:52:34.200Z,96660.34
2022-07-31T06:53:35.815Z,96658.00
2022-07-31T06:54:37.480Z,96657.16
2022-07-31T06:55:44.098Z,96657.13
2022-07-31T06:56:46.279Z,96659.78
2022-07-31T06:57:47.862Z,96651.53
2022-07-31T06:58:49.514Z,96647.91
2022-07-31T06:59:51.090Z,96650.44
2022-07-31T07:00:52.661Z,96654.47
2022-07-31T07:01:54.268Z,96654.91
2022-07-31T07:02:55.861Z,96649.19
2022-07-31T07:03:57.790Z,96650.50
2022-07-31T07:05:05.717Z,96645.75
2022-07-31T07:06:08.401Z,96645.41
2022-07-31T07:07:09.964Z,96645.69
2022-07-31T07:08:11.560Z,96648.81
2022-07-31T07:09:13.149Z,96644.38
2022-07-31T07:10:14.913Z,96639.47
2022-07-31T07:11:16.747Z,96639.22
2022-07-31T07:12:18.387Z,96638.56
2022-07-31T07:13:20.417Z,96643.69
2022-07-31T07:14:23.478Z,96645.66
2022-07-31T07:15:25.043Z,96644.00
2022-07-31T07:16:26.632Z,96641.75
2022-07-31T07:17:29.609Z,96643.25
2022-07-31T07:18:31.714Z,96626.06
2022-07-31T07:19:34.690Z,96634.59
2022-07-31T07:20:36.346Z,96628.69
2022-07-31T07:21:37.911Z,96632.09
2022-07-31T07:22:39.471Z,96628.19
2022-07-31T07:23:41.344Z,96624.56
2022-07-31T07:24:43.269Z,96625.00
2022-07-31T07:25:44.994Z,96621.09
2022-07-31T07:26:46.595Z,96624.56
2022-07-31T07:27:48.339Z,96631.19
2022-07-31T07:28:50.020Z,96631.47
2022-07-31T07:29:51.643Z,96632.19
2022-07-31T07:30:53.193Z,96637.63
2022-07-31T07:31:54.753Z,96632.66
2022-07-31T07:32:56.425Z,96630.03
2022-07-31T07:33:58.097Z,96631.56
2022-07-31T07:35:00.654Z,96628.63
2022-07-31T07:36:02.496Z,96621.38
2022-07-31T07:37:04.086Z,96626.75
2022-07-31T07:38:06.050Z,96626.84
2022-07-31T07:39:10.978Z,96627.63
2022-07-31T07:40:12.711Z,96624.84
2022-07-31T07:41:14.538Z,96630.56
2022-07-31T07:42:20.177Z,96620.09
2022-07-31T07:43:21.800Z,96621.41
2022-07-31T07:44:23.407Z,96627.09
2022-07-31T07:45:24.994Z,96620.47
2022-07-31T07:46:26.691Z,96627.97
2022-07-31T07:47:28.280Z,96630.03
2022-07-31T07:48:51.132Z,96627.41
2022-07-31T07:49:53.220Z,96630.84
2022-07-31T07:50:54.821Z,96635.84
2022-07-31T07:51:59.606Z,96628.97
2022-07-31T07:53:02.019Z,96631.09
2022-07-31T07:54:03.782Z,96635.56
2022-07-31T07:55:06.544Z,96628.59
2022-07-31T07:56:08.144Z,96627.50
2022-07-31T07:57:14.602Z,96633.34
2022-07-31T07:58:17.420Z,96627.41
2022-07-31T07:59:18.970Z,96626.09
2022-07-31T08:00:20.688Z,96626.00
2022-07-31T08:01:22.457Z,96620.41
2022-07-31T08:02:24.156Z,96628.59
2022-07-31T08:03:49.288Z,96623.81
2022-07-31T08:04:48.497Z,96612.09
2022-07-31T08:05:50.091Z,96614.03
2022-07-31T08:06:51.807Z,96613.69
2022-07-31T08:07:53.477Z,96612.97
2022-07-31T08:08:55.172Z,96617.00
2022-07-31T08:10:00.132Z,96608.75
2022-07-31T08:11:03.540Z,96611.44
2022-07-31T08:12:05.987Z,96619.16
2022-07-31T08:13:07.729Z,96621.19
2022-07-31T08:14:09.661Z,96615.59
2022-07-31T08:15:11.977Z,96624.78
2022-07-31T08:16:13.578Z,96608.13
2022-07-31T08:17:15.335Z,96612.91
2022-07-31T08:18:17.951Z,96609.97
2022-07-31T08:19:19.918Z,96608.91
2022-07-31T08:20:21.560Z,96609.09
2022-07-31T08:21:23.161Z,96605.97
2022-07-31T08:22:24.838Z,96607.19
2022-07-31T08:23:26.517Z,96602.22
2022-07-31T08:24:28.138Z,96614.31
2022-07-31T08:25:31.175Z,96608.66
2022-07-31T08:26:52.218Z,96600.84
2022-07-31T08:27:53.947Z,96595.22
2022-07-31T08:28:56.131Z,96593.56
2022-07-31T08:30:00.553Z,96601.41
2022-07-31T08:31:03.001Z,96602.59
2022-07-31T08:32:05.189Z,96598.09
2022-07-31T08:33:07.099Z,96592.34
2022-07-31T08:34:08.761Z,96587.31
2022-07-31T08:35:10.422Z,96596.53
2022-07-31T08:36:12.598Z,96599.72
2022-07-31T08:37:52.589Z,96595.00
2022-07-31T08:38:36.973Z,96601.16
2022-07-31T08:39:38.611Z,96596.63
2022-07-31T08:40:43.378Z,96601.56
2022-07-31T08:41:45.841Z,96604.19
2022-07-31T08:42:47.446Z,96592.28
2022-07-31T08:44:01.725Z,96602.88
2022-07-31T08:45:09.595Z,96600.03
2022-07-31T08:46:13.006Z,96594.00
2022-07-31T08:47:16.294Z,96596.28
2022-07-31T08:48:22.312Z,96590.25
2022-07-31T08:49:28.241Z,96603.34
2022-07-31T08:50:30.889Z,96600.47
2022-07-31T08:51:51.565Z,96600.59
2022-07-31T08:53:02.582Z,96596.06
2022-07-31T08:54:13.564Z,96587.38
2022-07-31T08:55:54.703Z,96593.00
2022-07-31T08:56:38.756Z,96590.06
2022-07-31T08:57:40.497Z,96589.25
2022-07-31T08:58:42.502Z,96582.19
2022-07-31T08:59:44.283Z,96580.94
2022-07-31T09:00:46.423Z,96573.78
2022-07-31T09:01:48.059Z,96583.78
2022-07-31T09:02:50.121Z,96569.00
2022-07-31T09:03:53.137Z,96581.00
2022-07-31T09:04:54.790Z,96581.00
2022-07-31T09:05:56.402Z,96570.63
2022-07-31T09:07:00.467Z,96563.28
2022-07-31T09:08:03.687Z,96577.59
2022-07-31T09:09:16.879Z,96576.41
2022-07-31T09:10:27.608Z,96577.53
2022-07-31T09:11:29.282Z,96576.63
2022-07-31T09:12:34.231Z,96581.22
2022-07-31T09:13:36.937Z,96573.53
2022-07-31T09:14:38.596Z,96568.44
2022-07-31T09:15:40.396Z,96579.44
2022-07-31T09:16:47.309Z,96565.38
2022-07-31T09:17:53.742Z,96577.22
2022-07-31T09:19:52.580Z,96562.69
2022-07-31T09:20:29.552Z,96563.50
2022-07-31T09:21:45.600Z,96575.50
2022-07-31T09:22:48.133Z,96561.50
2022-07-31T09:23:49.905Z,96561.78
2022-07-31T09:24:51.868Z,96553.22
2022-07-31T09:25:58.354Z,96560.91
2022-07-31T09:27:06.398Z,96558.84
2022-07-31T09:28:08.253Z,96557.94
2022-07-31T09:29:11.954Z,96555.66
2022-07-31T09:30:14.254Z,96550.53
2022-07-31T09:31:15.899Z,96549.19
2022-07-31T09:32:20.248Z,96558.13
2022-07-31T09:33:22.090Z,96553.41
2022-07-31T09:34:28.788Z,96549.81
2022-07-31T09:35:39.844Z,96550.78
2022-07-31T09:36:43.247Z,96549.13
2022-07-31T09:37:47.641Z,96541.34
2022-07-31T09:38:59.007Z,96547.25
2022-07-31T09:40:09.314Z,96536.25
2022-07-31T09:41:56.652Z,96538.25
2022-07-31T09:44:09.962Z,96544.91
2022-07-31T09:45:18.907Z,96532.75
2022-07-31T09:46:20.896Z,96528.41
2022-07-31T09:47:31.171Z,96523.94
2022-07-31T09:48:33.710Z,96525.13
2022-07-31T09:49:37.005Z,96526.03
2022-07-31T09:50:39.835Z,96528.47
2022-07-31T09:51:46.991Z,96536.28
2022-07-31T09:52:58.561Z,96520.69
2022-07-31T09:54:00.136Z,96523.72
2022-07-31T09:55:15.496Z,96531.41
2022-07-31T09:56:18.457Z,96510.44
2022-07-31T09:57:20.059Z,96523.09
2022-07-31T09:58:23.232Z,96525.41
2022-07-31T09:59:26.694Z,96523.28
2022-07-31T10:00:28.885Z,96528.84
2022-07-31T10:01:33.036Z,96526.66
2022-07-31T10:02:36.119Z,96526.41
2022-07-31T10:03:39.330Z,96506.78
2022-07-31T10:04:43.080Z,96517.19
2022-07-31T10:05:46.483Z,96509.25
2022-07-31T10:06:50.752Z,96515.50
2022-07-31T10:07:56.033Z,96525.38
2022-07-31T10:08:58.964Z,96515.75
2022-07-31T10:10:01.034Z,96518.53
2022-07-31T10:11:05.753Z,96501.06
2022-07-31T10:12:16.353Z,96518.22
2022-07-31T10:13:20.732Z,96504.88
2022-07-31T10:14:28.440Z,96513.28
2022-07-31T10:15:31.498Z,96506.56
2022-07-31T10:16:40.131Z,96516.09
2022-07-31T10:17:45.735Z,96512.19
2022-07-31T10:18:52.971Z,96518.78
2022-07-31T10:20:01.205Z,96506.84
2022-07-31T10:21:05.757Z,96507.03
2022-07-31T10:22:09.983Z,96506.88
2022-07-31T10:23:22.756Z,96503.66
2022-07-31T10:24:28.352Z,96503.19
2022-07-31T10:25:30.888Z,96497.69
2022-07-31T10:26:57.701Z,96510.09
2022-07-31T10:27:57.164Z,96497.53
2022-07-31T10:28:59.429Z,96488.03
2022-07-31T10:30:01.967Z,96482.63
2022-07-31T10:31:03.868Z,96501.19
2022-07-31T10:32:06.748Z,96499.34
2022-07-31T10:33:40.812Z,96484.78
2022-07-31T10:34:34.729Z,96494.34
2022-07-31T10:35:43.715Z,96502.56
2022-07-31T10:37:05.366Z,96506.97
2022-07-31T10:38:19.995Z,96500.84
2022-07-31T10:39:53.629Z,96501.31
2022-07-31T10:41:09.912Z,96479.38
2022-07-31T10:43:01.941Z,96498.59
2022-07-31T10:44:35.399Z,96500.47
2022-07-31T10:45:50.272Z,96475.56
2022-07-31T10:46:53.317Z,96477.56
2022-07-31T10:48:00.226Z,96489.25
2022-07-31T10:49:08.749Z,96490.19
2022-07-31T10:50:20.945Z,96488.03
2022-07-31T10:51:23.372Z,96472.06
2022-07-31T10:52:29.100Z,96487.56
2022-07-31T10:53:41.454Z,96489.41
2022-07-31T10:54:52.439Z,96477.00
2022-07-31T10:56:05.772Z,96479.59
2022-07-31T10:57:07.913Z,96485.44
2022-07-31T10:58:12.179Z,96488.94
2022-07-31T10:59:13.832Z,96485.41
2022-07-31T11:00:18.194Z,96473.91
2022-07-31T11:01:20.108Z,96483.41
2022-07-31T11:02:32.661Z,96481.56
2022-07-31T11:03:44.700Z,96474.53
2022-07-31T11:04:46.429Z,96476.66
2022-07-31T11:06:02.375Z,96477.91
2022-07-31T11:07:14.844Z,96470.25
2022-07-31T11:08:16.481Z,96481.59
2022-07-31T11:09:26.324Z,96477.91
2022-07-31T11:10:28.109Z,96475.13
2022-07-31T11:11:37.185Z,96483.88
2022-07-31T11:12:39.396Z,96471.47
2022-07-31T11:13:56.743Z,96478.66
2022-07-31T11:14:58.404Z,96480.69
2022-07-31T11:16:04.798Z,96480.84
2022-07-31T11:17:06.995Z,96478.69
2022-07-31T11:18:25.685Z,96469.94
2022-07-31T11:19:41.764Z,96470.38
2022-07-31T11:20:47.028Z,96473.25
2022-07-31T11:21:48.768Z,96465.56
2022-07-31T11:22:58.794Z,96467.97
2022-07-31T11:24:03.063Z,96462.94
2022-07-31T11:25:06.891Z,96480.53
2022-07-31T11:26:08.740Z,96468.13
2022-07-31T11:27:10.287Z,96471.34
2022-07-31T11:28:11.945Z,96474.69
2022-07-31T11:29:59.264Z,96480.50
2022-07-31T11:30:35.842Z,96476.19
2022-07-31T11:31:37.566Z,96468.50
2022-07-31T11:32:39.400Z,96474.03
2022-07-31T11:33:46.497Z,96458.09
2022-07-31T11:34:53.840Z,96467.25
2022-07-31T11:35:57.273Z,96472.47
2022-07-31T11:36:58.954Z,96464.50
2022-07-31T11:38:00.626Z,96460.69
2022-07-31T11:39:03.647Z,96457.16
2022-07-31T11:40:07.948Z,96465.44
2022-07-31T11:41:10.482Z,96464.81
2022-07-31T11:42:16.341Z,96459.69
2022-07-31T11:43:26.239Z,96466.84
2022-07-31T11:44:28.313Z,96470.84
2022-07-31T11:45:33.447Z,96469.31
2022-07-31T11:46:38.008Z,96461.03
2022-07-31T11:48:11.293Z,96463.53
2022-07-31T11:49:05.828Z,96464.56
2022-07-31T11:50:10.496Z,96464.78
2022-07-31T11:51:18.366Z,96458.13
2022-07-31T11:52:30.960Z,96472.13
2022-07-31T11:53:42.283Z,96463.09
2022-07-31T11:54:43.900Z,96468.44
2022-07-31T11:55:51.358Z,96472.91
2022-07-31T11:56:57.298Z,96470.66
2022-07-31T11:57:58.950Z,96460.13
2022-07-31T11:59:00.596Z,96464.41
2022-07-31T12:00:23.181Z,96460.53
2022-07-31T12:01:29.796Z,96460.69
2022-07-31T12:02:31.671Z,96465.09
2022-07-31T12:03:38.486Z,96461.72
2022-07-31T12:04:40.778Z,96466.63
2022-07-31T12:05:49.359Z,96465.34
2022-07-31T12:06:56.628Z,96468.03
2022-07-31T12:07:58.523Z,96465.09
2022-07-31T12:09:00.225Z,96478.66
2022-07-31T12:10:03.784Z,96474.69
2022-07-31T12:11:08.078Z,96475.34
2022-07-31T12:12:11.807Z,96475.84
2022-07-31T12:13:18.393Z,96473.22
2022-07-31T12:14:33.980Z,96476.28
2022-07-31T12:15:35.821Z,96472.66
2022-07-31T12:16:41.623Z,96468.03
2022-07-31T12:17:43.188Z,96457.59
2022-07-31T12:18:57.033Z,96469.19
2022-07-31T12:20:07.355Z,96465.47
2022-07-31T12:21:09.265Z,96464.59
2022-07-31T12:22:18.933Z,96466.78
2022-07-31T12:23:38.694Z,96451.47
2022-07-31T12:24:43.173Z,96453.84
2022-07-31T12:25:46.427Z,96450.72
2022-07-31T12:26:56.079Z,96446.69
2022-07-31T12:27:57.749Z,96454.78
2022-07-31T12:29:06.293Z,96454.00
2022-07-31T12:30:17.424Z,96450.66
2022-07-31T12:31:19.153Z,96443.03
2022-07-31T12:32:25.794Z,96443.81
2022-07-31T12:33:27.733Z,96436.31
2022-07-31T12:34:40.793Z,96433.91
2022-07-31T12:35:55.802Z,96439.41
2022-07-31T12:36:59.569Z,96440.03
2022-07-31T12:38:01.168Z,96434.53
2022-07-31T12:39:04.917Z,96435.16
2022-07-31T12:40:07.671Z,96432.72
2022-07-31T12:41:09.593Z,96431.19
2022-07-31T12:42:30.415Z,96440.84